sensor_id;sensor_type;location;lat;lon;timestamp;pressure;altitude;pressure_sealevel;temperature;humidity
26487;BME280;14425;56.136;40.360;2022-11-18T00:01:46;57093.69;;;-145.77;100.00
26487;BME280;14425;56.136;40.360;2022-11-18T00:04:11;57093.69;;;-145.77;100.00
26487;BME280;14425;56.136;40.360;2022-11-18T00:06:37;57093.69;;;-145.77;100.00
26487;BME280;14425;56.136;40.360;2022-11-18T00:09:02;57093.69;;;-145.77;100.00
26487;BME280;14425;56.136;40.360;2022-11-18T00:11:28;57093.69;;;-145.77;100.00
26487;BME280;14425;56.136;40.360;2022-11-18T00:14:13;57093.69;;;-145.77;100.00
26487;BME280;14425;56.136;40.360;2022-11-18T00:16:47;57093.69;;;-145.77;100.00
26487;BME280;14425;56.136;40.360;2022-11-18T00:19:13;57093.69;;;-145.77;100.00
26487;BME280;14425;56.136;40.360;2022-11-18T00:21:38;57093.69;;;-145.77;100.00
26487;BME280;14425;56.136;40.360;2022-11-18T00:24:04;57093.69;;;-145.77;100.00
26487;BME280;14425;56.136;40.360;2022-11-18T00:26:32;57093.69;;;-145.77;100.00
26487;BME280;14425;56.136;40.360;2022-11-18T00:28:58;57093.69;;;-145.77;100.00
26487;BME280;14425;56.136;40.360;2022-11-18T00:31:24;57093.69;;;-145.77;100.00
26487;BME280;14425;56.136;40.360;2022-11-18T00:33:49;57093.69;;;-145.77;100.00
26487;BME280;14425;56.136;40.360;2022-11-18T00:36:14;57093.69;;;-145.77;100.00
26487;BME280;14425;56.136;40.360;2022-11-18T00:38:40;57093.69;;;-145.77;100.00
26487;BME280;14425;56.136;40.360;2022-11-18T00:41:09;57093.69;;;-145.77;100.00
26487;BME280;14425;56.136;40.360;2022-11-18T00:43:35;57093.69;;;-145.77;100.00
26487;BME280;14425;56.136;40.360;2022-11-18T00:46:01;57093.69;;;-145.77;100.00
26487;BME280;14425;56.136;40.360;2022-11-18T00:48:27;57093.69;;;-145.77;100.00
26487;BME280;14425;56.136;40.360;2022-11-18T00:50:53;57093.69;;;-145.77;100.00
26487;BME280;14425;56.136;40.360;2022-11-18T00:53:19;57093.69;;;-145.77;100.00
26487;BME280;14425;56.136;40.360;2022-11-18T00:55:45;57093.69;;;-145.77;100.00
26487;BME280;14425;56.136;40.360;2022-11-18T00:58:14;57093.69;;;-145.77;100.00
26487;BME280;14425;56.136;40.360;2022-11-18T01:00:40;57093.69;;;-145.77;100.00
26487;BME280;14425;56.136;40.360;2022-11-18T01:03:06;57093.69;;;-145.77;100.00
26487;BME280;14425;56.136;40.360;2022-11-18T01:05:31;57093.69;;;-145.77;100.00
26487;BME280;14425;56.136;40.360;2022-11-18T01:07:56;57093.69;;;-145.77;100.00
26487;BME280;14425;56.136;40.360;2022-11-18T01:10:21;57093.69;;;-145.77;100.00
26487;BME280;14425;56.136;40.360;2022-11-18T01:12:47;57093.69;;;-145.77;100.00
26487;BME280;14425;56.136;40.360;2022-11-18T01:15:36;57093.69;;;-145.77;100.00
26487;BME280;14425;56.136;40.360;2022-11-18T01:18:01;57093.69;;;-145.77;100.00
26487;BME280;14425;56.136;40.360;2022-11-18T01:20:27;57093.69;;;-145.77;100.00
26487;BME280;14425;56.136;40.360;2022-11-18T01:22:52;57093.69;;;-145.77;100.00
26487;BME280;14425;56.136;40.360;2022-11-18T01:25:17;57093.69;;;-145.77;100.00
26487;BME280;14425;56.136;40.360;2022-11-18T01:27:43;57093.69;;;-145.77;100.00
26487;BME280;14425;56.136;40.360;2022-11-18T01:30:08;57093.69;;;-145.77;100.00
26487;BME280;14425;56.136;40.360;2022-11-18T01:32:57;57093.69;;;-145.77;100.00
26487;BME280;14425;56.136;40.360;2022-11-18T01:35:22;57093.69;;;-145.77;100.00
26487;BME280;14425;56.136;40.360;2022-11-18T01:37:47;57093.69;;;-145.77;100.00
26487;BME280;14425;56.136;40.360;2022-11-18T01:40:13;57093.69;;;-145.77;100.00
26487;BME280;14425;56.136;40.360;2022-11-18T01:42:38;57093.69;;;-145.77;100.00
26487;BME280;14425;56.136;40.360;2022-11-18T01:45:05;57093.69;;;-145.77;100.00
26487;BME280;14425;56.136;40.360;2022-11-18T01:47:36;57093.69;;;-145.77;100.00
26487;BME280;14425;56.136;40.360;2022-11-18T01:50:04;57093.69;;;-145.77;100.00
26487;BME280;14425;56.136;40.360;2022-11-18T01:52:29;57093.69;;;-145.77;100.00
26487;BME280;14425;56.136;40.360;2022-11-18T01:54:57;57093.69;;;-145.77;100.00
26487;BME280;14425;56.136;40.360;2022-11-18T01:57:23;57093.69;;;-145.77;100.00
26487;BME280;14425;56.136;40.360;2022-11-18T01:59:52;57093.69;;;-145.77;100.00
26487;BME280;14425;56.136;40.360;2022-11-18T02:02:19;57093.69;;;-145.77;100.00
26487;BME280;14425;56.136;40.360;2022-11-18T02:04:48;57093.69;;;-145.77;100.00
26487;BME280;14425;56.136;40.360;2022-11-18T02:07:14;57093.69;;;-145.77;100.00
26487;BME280;14425;56.136;40.360;2022-11-18T02:09:40;57093.69;;;-145.77;100.00
26487;BME280;14425;56.136;40.360;2022-11-18T02:12:06;57093.69;;;-145.77;100.00
26487;BME280;14425;56.136;40.360;2022-11-18T02:14:33;57093.69;;;-145.77;100.00
26487;BME280;14425;56.136;40.360;2022-11-18T02:17:03;57093.69;;;-145.77;100.00
26487;BME280;14425;56.136;40.360;2022-11-18T02:25:29;57093.69;;;-145.77;100.00
26487;BME280;14425;56.136;40.360;2022-11-18T02:30:01;57093.69;;;-145.77;100.00
26487;BME280;14425;56.136;40.360;2022-11-18T02:32:31;57093.69;;;-145.77;100.00
26487;BME280;14425;56.136;40.360;2022-11-18T02:35:00;57093.69;;;-145.77;100.00
26487;BME280;14425;56.136;40.360;2022-11-18T02:37:48;57093.69;;;-145.77;100.00
26487;BME280;14425;56.136;40.360;2022-11-18T02:40:32;57093.69;;;-145.77;100.00
26487;BME280;14425;56.136;40.360;2022-11-18T02:43:00;57093.69;;;-145.77;100.00
26487;BME280;14425;56.136;40.360;2022-11-18T02:45:26;57093.69;;;-145.77;100.00
26487;BME280;14425;56.136;40.360;2022-11-18T02:47:53;57093.69;;;-145.77;100.00
26487;BME280;14425;56.136;40.360;2022-11-18T02:50:20;57093.69;;;-145.77;100.00
26487;BME280;14425;56.136;40.360;2022-11-18T02:52:49;57093.69;;;-145.77;100.00
26487;BME280;14425;56.136;40.360;2022-11-18T02:55:18;57093.69;;;-145.77;100.00
26487;BME280;14425;56.136;40.360;2022-11-18T02:57:45;57093.69;;;-145.77;100.00
26487;BME280;14425;56.136;40.360;2022-11-18T03:00:12;57093.69;;;-145.77;100.00
26487;BME280;14425;56.136;40.360;2022-11-18T03:02:47;57093.69;;;-145.77;100.00
26487;BME280;14425;56.136;40.360;2022-11-18T03:05:25;57093.69;;;-145.77;100.00
26487;BME280;14425;56.136;40.360;2022-11-18T03:07:54;57093.69;;;-145.77;100.00
26487;BME280;14425;56.136;40.360;2022-11-18T03:10:20;57093.69;;;-145.77;100.00
26487;BME280;14425;56.136;40.360;2022-11-18T03:17:54;57093.69;;;-145.77;100.00
26487;BME280;14425;56.136;40.360;2022-11-18T03:22:53;57093.69;;;-145.77;100.00
26487;BME280;14425;56.136;40.360;2022-11-18T03:30:12;57093.69;;;-145.77;100.00
26487;BME280;14425;56.136;40.360;2022-11-18T03:32:43;57093.69;;;-145.77;100.00
26487;BME280;14425;56.136;40.360;2022-11-18T03:35:13;57093.69;;;-145.77;100.00
26487;BME280;14425;56.136;40.360;2022-11-18T03:37:41;57093.69;;;-145.77;100.00
26487;BME280;14425;56.136;40.360;2022-11-18T03:40:11;57093.69;;;-145.77;100.00
26487;BME280;14425;56.136;40.360;2022-11-18T03:42:43;57093.69;;;-145.77;100.00
26487;BME280;14425;56.136;40.360;2022-11-18T03:45:14;57093.69;;;-145.77;100.00
26487;BME280;14425;56.136;40.360;2022-11-18T03:47:44;57093.69;;;-145.77;100.00
26487;BME280;14425;56.136;40.360;2022-11-18T03:50:19;57093.69;;;-145.77;100.00
26487;BME280;14425;56.136;40.360;2022-11-18T03:52:46;57093.69;;;-145.77;100.00
26487;BME280;14425;56.136;40.360;2022-11-18T03:55:13;57093.69;;;-145.77;100.00
26487;BME280;14425;56.136;40.360;2022-11-18T04:00:08;57093.69;;;-145.77;100.00
26487;BME280;14425;56.136;40.360;2022-11-18T04:02:33;57093.69;;;-145.77;100.00
26487;BME280;14425;56.136;40.360;2022-11-18T04:04:59;57093.69;;;-145.77;100.00
26487;BME280;14425;56.136;40.360;2022-11-18T04:07:49;57093.69;;;-145.77;100.00
26487;BME280;14425;56.136;40.360;2022-11-18T04:12:51;57093.69;;;-145.77;100.00
26487;BME280;14425;56.136;40.360;2022-11-18T04:15:18;57093.69;;;-145.77;100.00
26487;BME280;14425;56.136;40.360;2022-11-18T04:17:44;57093.69;;;-145.77;100.00
26487;BME280;14425;56.136;40.360;2022-11-18T04:20:14;57093.69;;;-145.77;100.00
26487;BME280;14425;56.136;40.360;2022-11-18T04:22:41;57093.69;;;-145.77;100.00
26487;BME280;14425;56.136;40.360;2022-11-18T04:25:09;57093.69;;;-145.77;100.00
26487;BME280;14425;56.136;40.360;2022-11-18T04:27:35;57093.69;;;-145.77;100.00
26487;BME280;14425;56.136;40.360;2022-11-18T04:30:00;57093.69;;;-145.77;100.00
26487;BME280;14425;56.136;40.360;2022-11-18T04:32:25;57093.69;;;-145.77;100.00
26487;BME280;14425;56.136;40.360;2022-11-18T04:34:51;57093.69;;;-145.77;100.00
26487;BME280;14425;56.136;40.360;2022-11-18T04:37:16;57093.69;;;-145.77;100.00
26487;BME280;14425;56.136;40.360;2022-11-18T04:39:41;57093.69;;;-145.77;100.00
26487;BME280;14425;56.136;40.360;2022-11-18T04:42:07;57093.69;;;-145.77;100.00
26487;BME280;14425;56.136;40.360;2022-11-18T04:44:32;57093.69;;;-145.77;100.00
26487;BME280;14425;56.136;40.360;2022-11-18T04:46:59;57093.69;;;-145.77;100.00
26487;BME280;14425;56.136;40.360;2022-11-18T04:49:25;57093.69;;;-145.77;100.00
26487;BME280;14425;56.136;40.360;2022-11-18T04:51:51;57093.69;;;-145.77;100.00
26487;BME280;14425;56.136;40.360;2022-11-18T04:54:17;57093.69;;;-145.77;100.00
26487;BME280;14425;56.136;40.360;2022-11-18T04:56:42;57093.69;;;-145.77;100.00
26487;BME280;14425;56.136;40.360;2022-11-18T04:59:09;57093.69;;;-145.77;100.00
26487;BME280;14425;56.136;40.360;2022-11-18T05:01:35;57093.69;;;-145.77;100.00
26487;BME280;14425;56.136;40.360;2022-11-18T05:04:00;57093.69;;;-145.77;100.00
26487;BME280;14425;56.136;40.360;2022-11-18T05:06:26;57093.69;;;-145.77;100.00
26487;BME280;14425;56.136;40.360;2022-11-18T05:08:52;57093.69;;;-145.77;100.00
26487;BME280;14425;56.136;40.360;2022-11-18T05:11:17;57093.69;;;-145.77;100.00
26487;BME280;14425;56.136;40.360;2022-11-18T05:14:01;57093.69;;;-145.77;100.00
26487;BME280;14425;56.136;40.360;2022-11-18T05:16:27;57093.69;;;-145.77;100.00
26487;BME280;14425;56.136;40.360;2022-11-18T05:18:52;57093.69;;;-145.77;100.00
26487;BME280;14425;56.136;40.360;2022-11-18T05:21:18;57093.69;;;-145.77;100.00
26487;BME280;14425;56.136;40.360;2022-11-18T05:23:43;57093.69;;;-145.77;100.00
26487;BME280;14425;56.136;40.360;2022-11-18T05:26:09;57093.69;;;-145.77;100.00
26487;BME280;14425;56.136;40.360;2022-11-18T05:28:35;57093.69;;;-145.77;100.00
26487;BME280;14425;56.136;40.360;2022-11-18T05:31:08;57093.69;;;-145.77;100.00
26487;BME280;14425;56.136;40.360;2022-11-18T05:33:33;57093.69;;;-145.77;100.00
26487;BME280;14425;56.136;40.360;2022-11-18T05:36:03;57093.69;;;-145.77;100.00
26487;BME280;14425;56.136;40.360;2022-11-18T05:38:30;57093.69;;;-145.77;100.00
26487;BME280;14425;56.136;40.360;2022-11-18T05:40:55;57093.69;;;-145.77;100.00
26487;BME280;14425;56.136;40.360;2022-11-18T05:43:24;57093.69;;;-145.77;100.00
26487;BME280;14425;56.136;40.360;2022-11-18T05:45:49;57093.69;;;-145.77;100.00
26487;BME280;14425;56.136;40.360;2022-11-18T05:48:16;57093.69;;;-145.77;100.00
26487;BME280;14425;56.136;40.360;2022-11-18T05:50:45;57093.69;;;-145.77;100.00
26487;BME280;14425;56.136;40.360;2022-11-18T05:53:10;57093.69;;;-145.77;100.00
26487;BME280;14425;56.136;40.360;2022-11-18T05:55:38;57093.69;;;-145.77;100.00
26487;BME280;14425;56.136;40.360;2022-11-18T05:58:04;57093.69;;;-145.77;100.00
26487;BME280;14425;56.136;40.360;2022-11-18T06:00:30;57093.69;;;-145.77;100.00
26487;BME280;14425;56.136;40.360;2022-11-18T06:02:56;57093.69;;;-145.77;100.00
26487;BME280;14425;56.136;40.360;2022-11-18T06:05:22;57093.69;;;-145.77;100.00
26487;BME280;14425;56.136;40.360;2022-11-18T06:08:07;57093.69;;;-145.77;100.00
26487;BME280;14425;56.136;40.360;2022-11-18T06:10:33;57093.69;;;-145.77;100.00
26487;BME280;14425;56.136;40.360;2022-11-18T06:13:01;57093.69;;;-145.77;100.00
26487;BME280;14425;56.136;40.360;2022-11-18T06:15:39;57093.69;;;-145.77;100.00
26487;BME280;14425;56.136;40.360;2022-11-18T06:18:07;57093.69;;;-145.77;100.00
26487;BME280;14425;56.136;40.360;2022-11-18T06:20:34;57093.69;;;-145.77;100.00
26487;BME280;14425;56.136;40.360;2022-11-18T06:23:00;57093.69;;;-145.77;100.00
26487;BME280;14425;56.136;40.360;2022-11-18T06:25:26;57093.69;;;-145.77;100.00
26487;BME280;14425;56.136;40.360;2022-11-18T06:27:52;57093.69;;;-145.77;100.00
26487;BME280;14425;56.136;40.360;2022-11-18T06:30:19;57093.69;;;-145.77;100.00
26487;BME280;14425;56.136;40.360;2022-11-18T06:32:44;57093.69;;;-145.77;100.00
26487;BME280;14425;56.136;40.360;2022-11-18T06:35:09;57093.69;;;-145.77;100.00
26487;BME280;14425;56.136;40.360;2022-11-18T06:37:35;57093.69;;;-145.77;100.00
26487;BME280;14425;56.136;40.360;2022-11-18T06:40:02;57093.69;;;-145.77;100.00
26487;BME280;14425;56.136;40.360;2022-11-18T06:42:29;57093.69;;;-145.77;100.00
26487;BME280;14425;56.136;40.360;2022-11-18T06:45:13;57093.69;;;-145.77;100.00
26487;BME280;14425;56.136;40.360;2022-11-18T06:47:38;57093.69;;;-145.77;100.00
26487;BME280;14425;56.136;40.360;2022-11-18T06:50:04;57093.69;;;-145.77;100.00
26487;BME280;14425;56.136;40.360;2022-11-18T06:52:30;57093.69;;;-145.77;100.00
26487;BME280;14425;56.136;40.360;2022-11-18T06:54:55;57093.69;;;-145.77;100.00
26487;BME280;14425;56.136;40.360;2022-11-18T06:57:21;57093.69;;;-145.77;100.00
26487;BME280;14425;56.136;40.360;2022-11-18T06:59:46;57093.69;;;-145.77;100.00
26487;BME280;14425;56.136;40.360;2022-11-18T07:02:11;57093.69;;;-145.77;100.00
26487;BME280;14425;56.136;40.360;2022-11-18T07:04:37;57093.69;;;-145.77;100.00
26487;BME280;14425;56.136;40.360;2022-11-18T07:07:08;57093.69;;;-145.77;100.00
26487;BME280;14425;56.136;40.360;2022-11-18T07:09:33;57093.69;;;-145.77;100.00
26487;BME280;14425;56.136;40.360;2022-11-18T07:11:59;57093.69;;;-145.77;100.00
26487;BME280;14425;56.136;40.360;2022-11-18T07:14:24;57093.69;;;-145.77;100.00
26487;BME280;14425;56.136;40.360;2022-11-18T07:16:49;57093.69;;;-145.77;100.00
26487;BME280;14425;56.136;40.360;2022-11-18T07:19:15;57093.69;;;-145.77;100.00
26487;BME280;14425;56.136;40.360;2022-11-18T07:21:40;57093.69;;;-145.77;100.00
26487;BME280;14425;56.136;40.360;2022-11-18T07:24:07;57093.69;;;-145.77;100.00
26487;BME280;14425;56.136;40.360;2022-11-18T07:26:36;57093.69;;;-145.77;100.00
26487;BME280;14425;56.136;40.360;2022-11-18T07:29:02;57093.69;;;-145.77;100.00
26487;BME280;14425;56.136;40.360;2022-11-18T07:31:28;57093.69;;;-145.77;100.00
26487;BME280;14425;56.136;40.360;2022-11-18T07:33:53;57093.69;;;-145.77;100.00
26487;BME280;14425;56.136;40.360;2022-11-18T07:36:20;57093.69;;;-145.77;100.00
26487;BME280;14425;56.136;40.360;2022-11-18T07:38:45;57093.69;;;-145.77;100.00
26487;BME280;14425;56.136;40.360;2022-11-18T07:43:39;57093.69;;;-145.77;100.00
26487;BME280;14425;56.136;40.360;2022-11-18T07:48:33;57093.69;;;-145.77;100.00
26487;BME280;14425;56.136;40.360;2022-11-18T07:51:01;57093.69;;;-145.77;100.00
26487;BME280;14425;56.136;40.360;2022-11-18T07:53:30;57093.69;;;-145.77;100.00
26487;BME280;14425;56.136;40.360;2022-11-18T07:55:59;57093.69;;;-145.77;100.00
26487;BME280;14425;56.136;40.360;2022-11-18T07:58:24;57093.69;;;-145.77;100.00
26487;BME280;14425;56.136;40.360;2022-11-18T08:00:52;57093.69;;;-145.77;100.00
26487;BME280;14425;56.136;40.360;2022-11-18T08:03:17;57093.69;;;-145.77;100.00
26487;BME280;14425;56.136;40.360;2022-11-18T08:05:43;57093.69;;;-145.77;100.00
26487;BME280;14425;56.136;40.360;2022-11-18T08:08:08;57093.69;;;-145.77;100.00
26487;BME280;14425;56.136;40.360;2022-11-18T08:10:35;57093.69;;;-145.77;100.00
26487;BME280;14425;56.136;40.360;2022-11-18T08:13:00;57093.69;;;-145.77;100.00
26487;BME280;14425;56.136;40.360;2022-11-18T08:15:25;57093.69;;;-145.77;100.00
26487;BME280;14425;56.136;40.360;2022-11-18T08:17:51;57093.69;;;-145.77;100.00
26487;BME280;14425;56.136;40.360;2022-11-18T08:20:18;57093.69;;;-145.77;100.00
26487;BME280;14425;56.136;40.360;2022-11-18T08:22:44;57093.69;;;-145.77;100.00
26487;BME280;14425;56.136;40.360;2022-11-18T08:25:09;57093.69;;;-145.77;100.00
26487;BME280;14425;56.136;40.360;2022-11-18T08:27:34;57093.69;;;-145.77;100.00
26487;BME280;14425;56.136;40.360;2022-11-18T08:30:00;57093.69;;;-145.77;100.00
26487;BME280;14425;56.136;40.360;2022-11-18T08:32:25;57093.69;;;-145.77;100.00
26487;BME280;14425;56.136;40.360;2022-11-18T08:34:50;57093.69;;;-145.77;100.00
26487;BME280;14425;56.136;40.360;2022-11-18T08:37:19;57093.69;;;-145.77;100.00
26487;BME280;14425;56.136;40.360;2022-11-18T08:39:47;57093.69;;;-145.77;100.00
26487;BME280;14425;56.136;40.360;2022-11-18T08:42:12;57093.69;;;-145.77;100.00
26487;BME280;14425;56.136;40.360;2022-11-18T08:44:41;57093.69;;;-145.77;100.00
26487;BME280;14425;56.136;40.360;2022-11-18T08:47:06;57093.69;;;-145.77;100.00
26487;BME280;14425;56.136;40.360;2022-11-18T08:49:31;57093.69;;;-145.77;100.00
26487;BME280;14425;56.136;40.360;2022-11-18T08:51:59;57093.69;;;-145.77;100.00
26487;BME280;14425;56.136;40.360;2022-11-18T08:54:24;57093.69;;;-145.77;100.00
26487;BME280;14425;56.136;40.360;2022-11-18T08:56:50;57093.69;;;-145.77;100.00
26487;BME280;14425;56.136;40.360;2022-11-18T08:59:15;57093.69;;;-145.77;100.00
26487;BME280;14425;56.136;40.360;2022-11-18T09:01:40;57093.69;;;-145.77;100.00
26487;BME280;14425;56.136;40.360;2022-11-18T09:04:08;57093.69;;;-145.77;100.00
26487;BME280;14425;56.136;40.360;2022-11-18T09:06:33;57093.69;;;-145.77;100.00
26487;BME280;14425;56.136;40.360;2022-11-18T09:08:59;57093.69;;;-145.77;100.00
26487;BME280;14425;56.136;40.360;2022-11-18T09:11:24;57093.69;;;-145.77;100.00
26487;BME280;14425;56.136;40.360;2022-11-18T09:13:51;57093.69;;;-145.77;100.00
26487;BME280;14425;56.136;40.360;2022-11-18T09:16:16;57093.69;;;-145.77;100.00
26487;BME280;14425;56.136;40.360;2022-11-18T09:18:42;57093.69;;;-145.77;100.00
26487;BME280;14425;56.136;40.360;2022-11-18T09:21:07;57093.69;;;-145.77;100.00
26487;BME280;14425;56.136;40.360;2022-11-18T09:23:34;57093.69;;;-145.77;100.00
26487;BME280;14425;56.136;40.360;2022-11-18T09:26:09;57093.69;;;-145.77;100.00
26487;BME280;14425;56.136;40.360;2022-11-18T09:28:35;57093.69;;;-145.77;100.00
26487;BME280;14425;56.136;40.360;2022-11-18T09:31:04;57093.69;;;-145.77;100.00
26487;BME280;14425;56.136;40.360;2022-11-18T09:33:30;57093.69;;;-145.77;100.00
26487;BME280;14425;56.136;40.360;2022-11-18T09:35:55;57093.69;;;-145.77;100.00
26487;BME280;14425;56.136;40.360;2022-11-18T09:38:20;57093.69;;;-145.77;100.00
26487;BME280;14425;56.136;40.360;2022-11-18T09:43:26;57093.69;;;-145.77;100.00
26487;BME280;14425;56.136;40.360;2022-11-18T09:45:58;57093.69;;;-145.77;100.00
26487;BME280;14425;56.136;40.360;2022-11-18T09:48:27;57093.69;;;-145.77;100.00
26487;BME280;14425;56.136;40.360;2022-11-18T09:51:11;57093.69;;;-145.77;100.00
26487;BME280;14425;56.136;40.360;2022-11-18T09:53:38;57093.69;;;-145.77;100.00
26487;BME280;14425;56.136;40.360;2022-11-18T09:56:09;57093.69;;;-145.77;100.00
26487;BME280;14425;56.136;40.360;2022-11-18T09:58:37;57093.69;;;-145.77;100.00
26487;BME280;14425;56.136;40.360;2022-11-18T10:01:03;57093.69;;;-145.77;100.00
26487;BME280;14425;56.136;40.360;2022-11-18T10:03:33;57093.69;;;-145.77;100.00
26487;BME280;14425;56.136;40.360;2022-11-18T10:06:02;57093.69;;;-145.77;100.00
26487;BME280;14425;56.136;40.360;2022-11-18T10:18:35;57093.69;;;-145.77;100.00
26487;BME280;14425;56.136;40.360;2022-11-18T10:23:37;57093.69;;;-145.77;100.00
26487;BME280;14425;56.136;40.360;2022-11-18T10:26:08;57093.69;;;-145.77;100.00
26487;BME280;14425;56.136;40.360;2022-11-18T10:28:33;57093.69;;;-145.77;100.00
26487;BME280;14425;56.136;40.360;2022-11-18T10:31:03;57093.69;;;-145.77;100.00
26487;BME280;14425;56.136;40.360;2022-11-18T10:33:29;57093.69;;;-145.77;100.00
26487;BME280;14425;56.136;40.360;2022-11-18T10:41:47;57093.69;;;-145.77;100.00
26487;BME280;14425;56.136;40.360;2022-11-18T10:44:30;57093.69;;;-145.77;100.00
26487;BME280;14425;56.136;40.360;2022-11-18T10:47:07;57093.69;;;-145.77;100.00
26487;BME280;14425;56.136;40.360;2022-11-18T10:49:38;57093.69;;;-145.77;100.00
26487;BME280;14425;56.136;40.360;2022-11-18T10:52:11;57093.69;;;-145.77;100.00
26487;BME280;14425;56.136;40.360;2022-11-18T10:54:37;57093.69;;;-145.77;100.00
26487;BME280;14425;56.136;40.360;2022-11-18T10:59:50;57093.69;;;-145.77;100.00
26487;BME280;14425;56.136;40.360;2022-11-18T11:02:17;57093.69;;;-145.77;100.00
26487;BME280;14425;56.136;40.360;2022-11-18T11:04:44;57093.69;;;-145.77;100.00
26487;BME280;14425;56.136;40.360;2022-11-18T11:07:14;57093.69;;;-145.77;100.00
26487;BME280;14425;56.136;40.360;2022-11-18T11:09:40;57093.69;;;-145.77;100.00
26487;BME280;14425;56.136;40.360;2022-11-18T11:12:12;57093.69;;;-145.77;100.00
26487;BME280;14425;56.136;40.360;2022-11-18T11:17:14;57093.69;;;-145.77;100.00
26487;BME280;14425;56.136;40.360;2022-11-18T11:22:13;57093.69;;;-145.77;100.00
26487;BME280;14425;56.136;40.360;2022-11-18T11:24:39;57093.69;;;-145.77;100.00
26487;BME280;14425;56.136;40.360;2022-11-18T11:27:17;57093.69;;;-145.77;100.00
26487;BME280;14425;56.136;40.360;2022-11-18T11:39:53;57093.69;;;-145.77;100.00
26487;BME280;14425;56.136;40.360;2022-11-18T11:55:27;57093.69;;;-145.77;100.00
26487;BME280;14425;56.136;40.360;2022-11-18T12:00:41;57093.69;;;-145.77;100.00
26487;BME280;14425;56.136;40.360;2022-11-18T12:03:28;57093.69;;;-145.77;100.00
26487;BME280;14425;56.136;40.360;2022-11-18T12:05:57;57093.69;;;-145.77;100.00
26487;BME280;14425;56.136;40.360;2022-11-18T12:08:27;57093.69;;;-145.77;100.00
26487;BME280;14425;56.136;40.360;2022-11-18T12:13:55;57093.69;;;-145.77;100.00
26487;BME280;14425;56.136;40.360;2022-11-18T12:19:16;57093.69;;;-145.77;100.00
26487;BME280;14425;56.136;40.360;2022-11-18T12:26:45;57093.69;;;-145.77;100.00
26487;BME280;14425;56.136;40.360;2022-11-18T12:31:45;57093.69;;;-145.77;100.00
26487;BME280;14425;56.136;40.360;2022-11-18T12:34:36;57093.69;;;-145.77;100.00
26487;BME280;14425;56.136;40.360;2022-11-18T12:50:51;57093.69;;;-145.77;100.00
26487;BME280;14425;56.136;40.360;2022-11-18T12:55:54;57093.69;;;-145.77;100.00
26487;BME280;14425;56.136;40.360;2022-11-18T12:58:24;57093.69;;;-145.77;100.00
26487;BME280;14425;56.136;40.360;2022-11-18T13:01:03;57093.69;;;-145.77;100.00
26487;BME280;14425;56.136;40.360;2022-11-18T13:03:32;57093.69;;;-145.77;100.00
26487;BME280;14425;56.136;40.360;2022-11-18T13:05:59;57093.69;;;-145.77;100.00
26487;BME280;14425;56.136;40.360;2022-11-18T13:08:28;57093.69;;;-145.77;100.00
26487;BME280;14425;56.136;40.360;2022-11-18T13:10:55;57093.69;;;-145.77;100.00
26487;BME280;14425;56.136;40.360;2022-11-18T13:13:50;98777.88;;;-3.43;95.01
26487;BME280;14425;56.136;40.360;2022-11-18T13:16:35;98761.16;;;-2.97;92.20
26487;BME280;14425;56.136;40.360;2022-11-18T13:19:20;98763.31;;;-3.02;91.81
26487;BME280;14425;56.136;40.360;2022-11-18T13:21:46;98774.06;;;-2.92;91.79
26487;BME280;14425;56.136;40.360;2022-11-18T13:24:41;98776.22;;;-2.75;88.29
26487;BME280;14425;56.136;40.360;2022-11-18T13:27:07;98777.72;;;-2.89;89.72
26487;BME280;14425;56.136;40.360;2022-11-18T13:32:44;98778.97;;;-2.72;90.41
26487;BME280;14425;56.136;40.360;2022-11-18T13:35:14;98782.88;;;-2.87;90.31
26487;BME280;14425;56.136;40.360;2022-11-18T13:37:53;98783.53;;;-2.90;89.95
26487;BME280;14425;56.136;40.360;2022-11-18T13:40:23;98790.44;;;-2.87;89.54
26487;BME280;14425;56.136;40.360;2022-11-18T13:42:49;98792.09;;;-3.44;93.06
26487;BME280;14425;56.136;40.360;2022-11-18T13:45:15;98799.75;;;-2.98;92.64
26487;BME280;14425;56.136;40.360;2022-11-18T13:47:48;98793.53;;;-2.80;90.22
26487;BME280;14425;56.136;40.360;2022-11-18T13:52:42;98808.88;;;-3.44;95.00
26487;BME280;14425;56.136;40.360;2022-11-18T13:55:19;98801.69;;;-3.06;94.20
26487;BME280;14425;56.136;40.360;2022-11-18T13:57:46;98801.28;;;-3.00;92.73
26487;BME280;14425;56.136;40.360;2022-11-18T14:00:19;98801.69;;;-3.06;92.71
26487;BME280;14425;56.136;40.360;2022-11-18T14:02:50;98801.66;;;-2.84;90.34
26487;BME280;14425;56.136;40.360;2022-11-18T14:05:18;98808.69;;;-2.68;89.37
26487;BME280;14425;56.136;40.360;2022-11-18T14:07:53;98809.41;;;-2.92;88.58
26487;BME280;14425;56.136;40.360;2022-11-18T14:10:27;98800.81;;;-3.50;93.17
26487;BME280;14425;56.136;40.360;2022-11-18T14:12:57;98810.38;;;-3.24;93.63
26487;BME280;14425;56.136;40.360;2022-11-18T14:17:55;98811.00;;;-2.71;90.70
26487;BME280;14425;56.136;40.360;2022-11-18T14:20:21;98813.56;;;-2.93;90.16
26487;BME280;14425;56.136;40.360;2022-11-18T14:22:48;98803.00;;;-2.77;90.39
26487;BME280;14425;56.136;40.360;2022-11-18T14:25:31;98814.03;;;-2.87;90.85
26487;BME280;14425;56.136;40.360;2022-11-18T14:28:11;98809.03;;;-2.63;88.95
26487;BME280;14425;56.136;40.360;2022-11-18T14:30:40;98807.63;;;-3.27;93.15
26487;BME280;14425;56.136;40.360;2022-11-18T14:33:13;98807.72;;;-2.58;91.55